sensor_id;sensor_type;location;lat;lon;timestamp;pressure;altitude;pressure_sealevel;temperature;humidity
70206;BME280;57593;55.896;37.396;2023-02-02T00:00:15;98322.50;;;2.42;100.00
70206;BME280;57593;55.896;37.396;2023-02-02T00:00:46;98329.13;;;2.48;100.00
70206;BME280;57593;55.896;37.396;2023-02-02T00:01:21;98332.31;;;2.45;100.00
70206;BME280;57593;55.896;37.396;2023-02-02T00:01:53;98326.84;;;2.56;100.00
70206;BME280;57593;55.896;37.396;2023-02-02T00:02:24;98327.28;;;2.49;100.00
70206;BME280;57593;55.896;37.396;2023-02-02T00:02:55;98328.31;;;2.39;100.00
70206;BME280;57593;55.896;37.396;2023-02-02T00:03:25;98326.66;;;2.52;100.00
70206;BME280;57593;55.896;37.396;2023-02-02T00:03:56;98328.06;;;2.58;100.00
70206;BME280;57593;55.896;37.396;2023-02-02T00:04:33;98320.94;;;2.32;100.00
70206;BME280;57593;55.896;37.396;2023-02-02T00:05:04;98321.56;;;2.38;100.00
70206;BME280;57593;55.896;37.396;2023-02-02T00:05:35;98330.47;;;2.37;100.00
70206;BME280;57593;55.896;37.396;2023-02-02T00:06:06;98328.38;;;2.57;100.00
70206;BME280;57593;55.896;37.396;2023-02-02T00:06:37;98327.25;;;2.40;100.00
70206;BME280;57593;55.896;37.396;2023-02-02T00:07:07;98322.53;;;2.51;100.00
70206;BME280;57593;55.896;37.396;2023-02-02T00:07:38;98334.38;;;2.57;100.00
70206;BME280;57593;55.896;37.396;2023-02-02T00:08:08;98330.16;;;2.39;100.00
70206;BME280;57593;55.896;37.396;2023-02-02T00:08:39;98327.38;;;2.35;100.00
70206;BME280;57593;55.896;37.396;2023-02-02T00:09:12;98328.31;;;2.39;100.00
70206;BME280;57593;55.896;37.396;2023-02-02T00:09:42;98330.47;;;2.37;100.00
70206;BME280;57593;55.896;37.396;2023-02-02T00:10:13;98340.88;;;2.37;100.00
70206;BME280;57593;55.896;37.396;2023-02-02T00:10:44;98331.38;;;2.41;100.00
70206;BME280;57593;55.896;37.396;2023-02-02T00:11:17;98334.78;;;2.42;100.00
70206;BME280;57593;55.896;37.396;2023-02-02T00:11:48;98330.06;;;2.53;100.00
70206;BME280;57593;55.896;37.396;2023-02-02T00:12:20;98321.91;;;2.45;100.00
70206;BME280;57593;55.896;37.396;2023-02-02T00:12:51;98320.53;;;2.48;100.00
70206;BME280;57593;55.896;37.396;2023-02-02T00:13:21;98319.75;;;2.47;100.00
70206;BME280;57593;55.896;37.396;2023-02-02T00:13:52;98329.28;;;2.52;100.00
70206;BME280;57593;55.896;37.396;2023-02-02T00:14:23;98327.56;;;2.47;100.00
70206;BME280;57593;55.896;37.396;2023-02-02T00:14:54;98322.38;;;2.47;100.00
70206;BME280;57593;55.896;37.396;2023-02-02T00:15:25;98320.19;;;2.41;100.00
70206;BME280;57593;55.896;37.396;2023-02-02T00:15:56;98322.81;;;2.41;100.00
70206;BME280;57593;55.896;37.396;2023-02-02T00:17:00;98326.97;;;2.50;100.00
70206;BME280;57593;55.896;37.396;2023-02-02T00:17:30;98327.13;;;2.45;100.00
70206;BME280;57593;55.896;37.396;2023-02-02T00:18:01;98321.56;;;2.38;100.00
70206;BME280;57593;55.896;37.396;2023-02-02T00:18:32;98312.38;;;2.41;100.00
70206;BME280;57593;55.896;37.396;2023-02-02T00:19:05;98322.09;;;2.58;100.00
70206;BME280;57593;55.896;37.396;2023-02-02T00:19:36;98320.91;;;2.64;100.00
70206;BME280;57593;55.896;37.396;2023-02-02T00:20:07;98326.25;;;2.59;100.00
70206;BME280;57593;55.896;37.396;2023-02-02T00:20:38;98325.94;;;2.60;100.00
70206;BME280;57593;55.896;37.396;2023-02-02T00:21:08;98322.91;;;2.67;100.00
70206;BME280;57593;55.896;37.396;2023-02-02T00:21:39;98322.41;;;2.56;100.00
70206;BME280;57593;55.896;37.396;2023-02-02T00:22:10;98320.94;;;2.81;100.00
70206;BME280;57593;55.896;37.396;2023-02-02T00:22:40;98318.47;;;2.85;100.00
70206;BME280;57593;55.896;37.396;2023-02-02T00:23:11;98320.00;;;2.77;100.00
70206;BME280;57593;55.896;37.396;2023-02-02T00:24:01;98320.59;;;2.65;100.00
70206;BME280;57593;55.896;37.396;2023-02-02T00:24:31;98318.16;;;2.78;100.00
70206;BME280;57593;55.896;37.396;2023-02-02T00:25:02;98320.47;;;2.79;100.00
70206;BME280;57593;55.896;37.396;2023-02-02T00:25:33;98319.53;;;2.75;100.00
70206;BME280;57593;55.896;37.396;2023-02-02T00:26:04;98317.56;;;2.81;100.00
70206;BME280;57593;55.896;37.396;2023-02-02T00:26:35;98316.06;;;2.88;100.00
70206;BME280;57593;55.896;37.396;2023-02-02T00:27:08;98317.09;;;2.79;100.00
70206;BME280;57593;55.896;37.396;2023-02-02T00:27:39;98310.34;;;2.86;100.00
70206;BME280;57593;55.896;37.396;2023-02-02T00:28:09;98322.19;;;2.84;100.00
70206;BME280;57593;55.896;37.396;2023-02-02T00:28:40;98319.69;;;2.79;100.00
70206;BME280;57593;55.896;37.396;2023-02-02T00:29:17;98320.19;;;2.81;100.00
70206;BME280;57593;55.896;37.396;2023-02-02T00:29:48;98318.66;;;2.88;100.00
70206;BME280;57593;55.896;37.396;2023-02-02T00:30:23;98321.41;;;2.92;100.00
70206;BME280;57593;55.896;37.396;2023-02-02T00:30:53;98319.19;;;2.68;100.00
70206;BME280;57593;55.896;37.396;2023-02-02T00:31:24;98315.34;;;2.57;100.00
70206;BME280;57593;55.896;37.396;2023-02-02T00:31:55;98327.16;;;2.63;100.00
70206;BME280;57593;55.896;37.396;2023-02-02T00:32:25;98324.84;;;2.53;100.00
70206;BME280;57593;55.896;37.396;2023-02-02T00:32:56;98319.94;;;2.51;100.00
70206;BME280;57593;55.896;37.396;2023-02-02T00:33:28;98318.28;;;2.64;100.00
70206;BME280;57593;55.896;37.396;2023-02-02T00:33:58;98316.44;;;2.64;100.00
70206;BME280;57593;55.896;37.396;2023-02-02T00:34:29;98323.34;;;2.60;100.00
70206;BME280;57593;55.896;37.396;2023-02-02T00:35:00;98321.34;;;2.57;100.00
70206;BME280;57593;55.896;37.396;2023-02-02T00:35:30;98317.34;;;2.60;100.00
70206;BME280;57593;55.896;37.396;2023-02-02T00:36:02;98320.06;;;2.46;100.00
70206;BME280;57593;55.896;37.396;2023-02-02T00:36:32;98319.44;;;2.40;100.00
70206;BME280;57593;55.896;37.396;2023-02-02T00:37:03;98324.22;;;2.47;100.00
70206;BME280;57593;55.896;37.396;2023-02-02T00:37:34;98325.28;;;2.46;100.00
70206;BME280;57593;55.896;37.396;2023-02-02T00:38:05;98317.88;;;2.39;100.00
70206;BME280;57593;55.896;37.396;2023-02-02T00:38:36;98318.34;;;2.41;100.00
70206;BME280;57593;55.896;37.396;2023-02-02T00:39:09;98325.56;;;2.44;100.00
70206;BME280;57593;55.896;37.396;2023-02-02T00:39:40;98322.81;;;2.41;100.00
70206;BME280;57593;55.896;37.396;2023-02-02T00:40:10;98315.84;;;2.27;100.00
70206;BME280;57593;55.896;37.396;2023-02-02T00:40:41;98320.53;;;2.16;100.00
70206;BME280;57593;55.896;37.396;2023-02-02T00:41:12;98317.31;;;2.11;100.00
70206;BME280;57593;55.896;37.396;2023-02-02T00:41:43;98327.56;;;2.07;100.00
70206;BME280;57593;55.896;37.396;2023-02-02T00:42:14;98321.06;;;1.96;100.00
70206;BME280;57593;55.896;37.396;2023-02-02T00:42:44;98322.25;;;1.90;100.00
70206;BME280;57593;55.896;37.396;2023-02-02T00:43:19;98316.69;;;1.83;100.00
70206;BME280;57593;55.896;37.396;2023-02-02T00:43:50;98315.50;;;1.66;100.00
70206;BME280;57593;55.896;37.396;2023-02-02T00:44:41;98320.13;;;1.69;100.00
70206;BME280;57593;55.896;37.396;2023-02-02T00:45:30;98321.84;;;1.74;100.00
70206;BME280;57593;55.896;37.396;2023-02-02T00:46:01;98315.38;;;1.71;100.00
70206;BME280;57593;55.896;37.396;2023-02-02T00:46:32;98324.66;;;1.64;100.00
70206;BME280;57593;55.896;37.396;2023-02-02T00:47:03;98328.69;;;1.70;100.00
70206;BME280;57593;55.896;37.396;2023-02-02T00:47:34;98324.25;;;1.48;100.00
70206;BME280;57593;55.896;37.396;2023-02-02T00:48:05;98326.38;;;1.68;100.00
70206;BME280;57593;55.896;37.396;2023-02-02T00:48:35;98316.75;;;1.69;100.00
70206;BME280;57593;55.896;37.396;2023-02-02T00:49:07;98323.31;;;1.66;100.00
70206;BME280;57593;55.896;37.396;2023-02-02T00:49:37;98309.53;;;1.66;100.00
70206;BME280;57593;55.896;37.396;2023-02-02T00:50:10;98324.84;;;1.90;100.00
70206;BME280;57593;55.896;37.396;2023-02-02T00:50:42;98323.91;;;1.86;100.00
70206;BME280;57593;55.896;37.396;2023-02-02T00:51:13;98315.97;;;1.68;100.00
70206;BME280;57593;55.896;37.396;2023-02-02T00:51:43;98309.88;;;1.73;100.00
70206;BME280;57593;55.896;37.396;2023-02-02T00:52:14;98314.78;;;1.74;100.00
70206;BME280;57593;55.896;37.396;2023-02-02T00:52:46;98319.34;;;1.91;100.00
70206;BME280;57593;55.896;37.396;2023-02-02T00:53:17;98311.66;;;1.86;100.00
70206;BME280;57593;55.896;37.396;2023-02-02T00:53:48;98315.16;;;1.82;100.00
70206;BME280;57593;55.896;37.396;2023-02-02T00:54:18;98322.00;;;1.77;100.00
70206;BME280;57593;55.896;37.396;2023-02-02T00:54:49;98326.44;;;1.77;100.00
70206;BME280;57593;55.896;37.396;2023-02-02T00:55:20;98317.22;;;1.71;100.00
70206;BME280;57593;55.896;37.396;2023-02-02T00:55:51;98313.72;;;1.75;100.00
70206;BME280;57593;55.896;37.396;2023-02-02T00:56:21;98316.75;;;1.69;100.00
70206;BME280;57593;55.896;37.396;2023-02-02T00:56:52;98314.47;;;1.67;100.00
70206;BME280;57593;55.896;37.396;2023-02-02T00:57:23;98312.56;;;1.82;100.00
70206;BME280;57593;55.896;37.396;2023-02-02T00:57:53;98314.25;;;1.86;100.00
70206;BME280;57593;55.896;37.396;2023-02-02T00:58:24;98316.09;;;1.86;100.00
70206;BME280;57593;55.896;37.396;2023-02-02T00:58:55;98319.47;;;1.86;100.00
70206;BME280;57593;55.896;37.396;2023-02-02T00:59:27;98319.94;;;1.88;100.00
70206;BME280;57593;55.896;37.396;2023-02-02T00:59:57;98324.84;;;1.90;100.00
70206;BME280;57593;55.896;37.396;2023-02-02T01:00:29;98317.47;;;1.83;100.00
70206;BME280;57593;55.896;37.396;2023-02-02T01:01:00;98317.63;;;1.87;100.00
70206;BME280;57593;55.896;37.396;2023-02-02T01:01:31;98314.03;;;1.96;100.00
70206;BME280;57593;55.896;37.396;2023-02-02T01:02:01;98309.47;;;1.79;100.00
70206;BME280;57593;55.896;37.396;2023-02-02T01:02:33;98311.44;;;1.74;100.00
70206;BME280;57593;55.896;37.396;2023-02-02T01:03:04;98319.53;;;1.72;100.00
70206;BME280;57593;55.896;37.396;2023-02-02T01:03:36;98318.28;;;1.70;100.00
70206;BME280;57593;55.896;37.396;2023-02-02T01:04:07;98321.00;;;1.65;100.00
70206;BME280;57593;55.896;37.396;2023-02-02T01:04:38;98315.47;;;1.57;100.00
70206;BME280;57593;55.896;37.396;2023-02-02T01:05:10;98318.88;;;1.44;100.00
70206;BME280;57593;55.896;37.396;2023-02-02T01:05:41;98313.38;;;1.68;100.00
70206;BME280;57593;55.896;37.396;2023-02-02T01:06:12;98316.34;;;1.53;100.00
70206;BME280;57593;55.896;37.396;2023-02-02T01:06:42;98311.94;;;1.62;100.00
70206;BME280;57593;55.896;37.396;2023-02-02T01:07:13;98320.84;;;1.61;100.00
70206;BME280;57593;55.896;37.396;2023-02-02T01:07:44;98313.56;;;1.49;100.00
70206;BME280;57593;55.896;37.396;2023-02-02T01:08:15;98314.25;;;1.41;100.00
70206;BME280;57593;55.896;37.396;2023-02-02T01:08:46;98314.56;;;1.39;100.00
70206;BME280;57593;55.896;37.396;2023-02-02T01:09:16;98313.97;;;1.42;100.00
70206;BME280;57593;55.896;37.396;2023-02-02T01:09:47;98305.19;;;1.38;100.00
70206;BME280;57593;55.896;37.396;2023-02-02T01:10:18;98312.13;;;1.43;100.00
70206;BME280;57593;55.896;37.396;2023-02-02T01:10:48;98313.50;;;1.40;100.00
70206;BME280;57593;55.896;37.396;2023-02-02T01:11:20;98305.88;;;1.44;100.00
70206;BME280;57593;55.896;37.396;2023-02-02T01:11:51;98304.22;;;1.48;100.00
70206;BME280;57593;55.896;37.396;2023-02-02T01:12:21;98303.03;;;1.54;100.00
70206;BME280;57593;55.896;37.396;2023-02-02T01:12:52;98307.75;;;1.52;100.00
70206;BME280;57593;55.896;37.396;2023-02-02T01:13:23;98309.22;;;1.44;100.00
70206;BME280;57593;55.896;37.396;2023-02-02T01:13:54;98313.97;;;1.42;100.00
70206;BME280;57593;55.896;37.396;2023-02-02T01:14:24;98317.34;;;1.43;100.00
70206;BME280;57593;55.896;37.396;2023-02-02T01:14:55;98311.94;;;1.62;100.00
70206;BME280;57593;55.896;37.396;2023-02-02T01:15:26;98308.53;;;1.53;100.00
70206;BME280;57593;55.896;37.396;2023-02-02T01:15:58;98307.53;;;1.63;100.00
70206;BME280;57593;55.896;37.396;2023-02-02T01:16:29;98314.47;;;1.67;100.00
70206;BME280;57593;55.896;37.396;2023-02-02T01:17:00;98302.50;;;1.66;100.00
70206;BME280;57593;55.896;37.396;2023-02-02T01:17:31;98302.44;;;1.80;100.00
70206;BME280;57593;55.896;37.396;2023-02-02T01:18:02;98309.72;;;1.92;100.00
70206;BME280;57593;55.896;37.396;2023-02-02T01:18:33;98308.16;;;1.91;100.00
70206;BME280;57593;55.896;37.396;2023-02-02T01:19:04;98305.19;;;1.84;100.00
70206;BME280;57593;55.896;37.396;2023-02-02T01:19:34;98306.06;;;2.02;100.00
70206;BME280;57593;55.896;37.396;2023-02-02T01:20:06;98311.00;;;2.03;100.00
70206;BME280;57593;55.896;37.396;2023-02-02T01:20:37;98307.03;;;2.06;100.00
70206;BME280;57593;55.896;37.396;2023-02-02T01:21:10;98306.13;;;2.10;100.00
70206;BME280;57593;55.896;37.396;2023-02-02T01:21:41;98310.53;;;1.78;100.00
70206;BME280;57593;55.896;37.396;2023-02-02T01:22:12;98310.63;;;1.96;100.00
70206;BME280;57593;55.896;37.396;2023-02-02T01:22:43;98306.28;;;2.14;100.00
70206;BME280;57593;55.896;37.396;2023-02-02T01:23:13;98302.72;;;2.01;100.00
70206;BME280;57593;55.896;37.396;2023-02-02T01:23:44;98307.66;;;2.11;100.00
70206;BME280;57593;55.896;37.396;2023-02-02T01:24:14;98301.16;;;2.00;100.00
70206;BME280;57593;55.896;37.396;2023-02-02T01:24:45;98300.47;;;1.86;100.00
70206;BME280;57593;55.896;37.396;2023-02-02T01:25:16;98303.91;;;1.95;100.00
70206;BME280;57593;55.896;37.396;2023-02-02T01:25:52;98309.16;;;2.04;100.00
70206;BME280;57593;55.896;37.396;2023-02-02T01:26:23;98312.78;;;1.94;100.00
70206;BME280;57593;55.896;37.396;2023-02-02T01:26:53;98309.13;;;1.95;100.00
70206;BME280;57593;55.896;37.396;2023-02-02T01:27:24;98313.25;;;1.96;100.00
70206;BME280;57593;55.896;37.396;2023-02-02T01:27:55;98299.38;;;1.78;100.00
70206;BME280;57593;55.896;37.396;2023-02-02T01:28:27;98301.66;;;1.79;100.00
70206;BME280;57593;55.896;37.396;2023-02-02T01:28:58;98301.19;;;1.77;100.00
70206;BME280;57593;55.896;37.396;2023-02-02T01:29:28;98308.06;;;1.73;100.00
70206;BME280;57593;55.896;37.396;2023-02-02T01:29:59;98301.31;;;1.72;100.00
70206;BME280;57593;55.896;37.396;2023-02-02T01:30:31;98301.38;;;1.81;100.00
70206;BME280;57593;55.896;37.396;2023-02-02T01:31:10;98301.06;;;1.83;100.00
70206;BME280;57593;55.896;37.396;2023-02-02T01:31:41;98304.66;;;1.73;100.00
70206;BME280;57593;55.896;37.396;2023-02-02T01:32:12;98301.19;;;1.77;100.00
70206;BME280;57593;55.896;37.396;2023-02-02T01:32:43;98298.28;;;1.79;100.00
70206;BME280;57593;55.896;37.396;2023-02-02T01:33:14;98302.34;;;1.94;100.00
70206;BME280;57593;55.896;37.396;2023-02-02T01:33:46;98304.66;;;1.73;100.00
70206;BME280;57593;55.896;37.396;2023-02-02T01:34:18;98297.06;;;1.76;100.00
70206;BME280;57593;55.896;37.396;2023-02-02T01:34:48;98297.34;;;1.52;100.00
70206;BME280;57593;55.896;37.396;2023-02-02T01:35:19;98298.78;;;1.81;100.00
70206;BME280;57593;55.896;37.396;2023-02-02T01:35:52;98300.84;;;1.70;100.00
70206;BME280;57593;55.896;37.396;2023-02-02T01:36:23;98297.09;;;1.85;100.00
70206;BME280;57593;55.896;37.396;2023-02-02T01:36:54;98295.09;;;1.82;100.00
70206;BME280;57593;55.896;37.396;2023-02-02T01:37:24;98297.75;;;1.91;100.00
70206;BME280;57593;55.896;37.396;2023-02-02T01:37:55;98305.44;;;1.96;100.00
70206;BME280;57593;55.896;37.396;2023-02-02T01:38:25;98301.69;;;1.88;100.00
70206;BME280;57593;55.896;37.396;2023-02-02T01:38:56;98305.91;;;1.98;100.00
70206;BME280;57593;55.896;37.396;2023-02-02T01:39:27;98300.59;;;1.80;100.00
70206;BME280;57593;55.896;37.396;2023-02-02T01:39:58;98302.44;;;1.80;100.00
70206;BME280;57593;55.896;37.396;2023-02-02T01:40:29;98301.97;;;1.78;100.00
70206;BME280;57593;55.896;37.396;2023-02-02T01:41:00;98302.53;;;1.97;100.00
70206;BME280;57593;55.896;37.396;2023-02-02T01:41:33;98311.16;;;2.07;100.00
70206;BME280;57593;55.896;37.396;2023-02-02T01:42:12;98297.41;;;2.15;100.00
70206;BME280;57593;55.896;37.396;2023-02-02T01:42:43;98298.19;;;2.15;100.00
70206;BME280;57593;55.896;37.396;2023-02-02T01:45:28;98297.75;;;1.68;100.00
70206;BME280;57593;55.896;37.396;2023-02-02T01:45:59;98305.41;;;1.87;100.00
70206;BME280;57593;55.896;37.396;2023-02-02T01:46:35;98306.75;;;1.85;100.00
70206;BME280;57593;55.896;37.396;2023-02-02T01:47:06;98300.03;;;1.61;100.00
70206;BME280;57593;55.896;37.396;2023-02-02T01:47:41;98303.19;;;1.80;100.00
70206;BME280;57593;55.896;37.396;2023-02-02T01:48:13;98308.59;;;1.84;100.00
70206;BME280;57593;55.896;37.396;2023-02-02T01:48:54;98312.00;;;1.93;100.00
70206;BME280;57593;55.896;37.396;2023-02-02T01:49:26;98304.59;;;1.87;100.00
70206;BME280;57593;55.896;37.396;2023-02-02T01:49:56;98308.09;;;1.82;100.00
70206;BME280;57593;55.896;37.396;2023-02-02T01:50:30;98305.06;;;1.57;100.00
70206;BME280;57593;55.896;37.396;2023-02-02T01:51:05;98308.47;;;1.67;100.00
70206;BME280;57593;55.896;37.396;2023-02-02T01:51:41;98299.69;;;1.85;100.00
70206;BME280;57593;55.896;37.396;2023-02-02T01:52:14;98297.81;;;1.77;100.00
70206;BME280;57593;55.896;37.396;2023-02-02T01:52:48;98306.97;;;1.74;100.00
70206;BME280;57593;55.896;37.396;2023-02-02T01:53:21;98313.31;;;1.82;100.00
70206;BME280;57593;55.896;37.396;2023-02-02T01:53:53;98309.00;;;1.77;100.00
70206;BME280;57593;55.896;37.396;2023-02-02T01:55:09;98304.38;;;1.74;100.00
70206;BME280;57593;55.896;37.396;2023-02-02T01:55:42;98310.09;;;1.85;100.00
70206;BME280;57593;55.896;37.396;2023-02-02T01:56:23;98308.75;;;1.88;100.00
70206;BME280;57593;55.896;37.396;2023-02-02T01:57:11;98306.06;;;1.70;100.00
70206;BME280;57593;55.896;37.396;2023-02-02T01:57:53;98310.06;;;1.76;100.00
70206;BME280;57593;55.896;37.396;2023-02-02T01:58:29;98308.41;;;1.80;100.00
70206;BME280;57593;55.896;37.396;2023-02-02T01:59:01;98306.75;;;1.85;100.00
70206;BME280;57593;55.896;37.396;2023-02-02T01:59:33;98298.53;;;1.69;100.00
70206;BME280;57593;55.896;37.396;2023-02-02T02:00:07;98301.00;;;1.74;100.00
70206;BME280;57593;55.896;37.396;2023-02-02T02:00:43;98298.72;;;1.72;100.00
70206;BME280;57593;55.896;37.396;2023-02-02T02:01:14;98296.88;;;1.73;100.00
70206;BME280;57593;55.896;37.396;2023-02-02T02:01:46;98302.44;;;1.80;100.00
70206;BME280;57593;55.896;37.396;2023-02-02T02:02:18;98297.22;;;1.80;100.00
70206;BME280;57593;55.896;37.396;2023-02-02T02:02:51;98302.50;;;1.89;100.00
70206;BME280;57593;55.896;37.396;2023-02-02T02:03:26;98303.56;;;1.88;100.00
70206;BME280;57593;55.896;37.396;2023-02-02T02:03:58;98305.16;;;1.75;100.00
70206;BME280;57593;55.896;37.396;2023-02-02T02:04:31;98294.03;;;1.83;100.00
70206;BME280;57593;55.896;37.396;2023-02-02T02:05:06;98298.50;;;1.91;100.00
70206;BME280;57593;55.896;37.396;2023-02-02T02:05:41;98304.06;;;1.98;100.00
70206;BME280;57593;55.896;37.396;2023-02-02T02:06:16;98303.13;;;1.94;100.00
70206;BME280;57593;55.896;37.396;2023-02-02T02:06:47;98304.59;;;1.87;100.00
70206;BME280;57593;55.896;37.396;2023-02-02T02:07:18;98304.44;;;2.06;100.00
70206;BME280;57593;55.896;37.396;2023-02-02T02:07:50;98300.34;;;1.91;100.00
70206;BME280;57593;55.896;37.396;2023-02-02T02:08:54;98304.53;;;2.01;100.00
70206;BME280;57593;55.896;37.396;2023-02-02T02:09:26;98305.03;;;1.80;100.00
70206;BME280;57593;55.896;37.396;2023-02-02T02:09:56;98300.19;;;1.87;100.00
70206;BME280;57593;55.896;37.396;2023-02-02T02:10:27;98305.72;;;1.94;100.00
70206;BME280;57593;55.896;37.396;2023-02-02T02:10:58;98312.00;;;1.93;100.00
70206;BME280;57593;55.896;37.396;2023-02-02T02:11:30;98311.13;;;1.98;100.00
70206;BME280;57593;55.896;37.396;2023-02-02T02:12:01;98317.84;;;1.99;100.00
70206;BME280;57593;55.896;37.396;2023-02-02T02:12:31;98317.97;;;1.94;100.00
70206;BME280;57593;55.896;37.396;2023-02-02T02:13:03;98310.03;;;1.99;100.00
70206;BME280;57593;55.896;37.396;2023-02-02T02:13:36;98308.59;;;2.15;100.00
70206;BME280;57593;55.896;37.396;2023-02-02T02:14:31;98307.50;;;2.08;100.00
70206;BME280;57593;55.896;37.396;2023-02-02T02:15:21;98316.19;;;2.03;100.00
70206;BME280;57593;55.896;37.396;2023-02-02T02:16:28;98307.63;;;2.03;100.00
70206;BME280;57593;55.896;37.396;2023-02-02T02:17:16;98305.50;;;2.13;100.00
70206;BME280;57593;55.896;37.396;2023-02-02T02:22:13;98304.81;;;1.68;100.00
70206;BME280;57593;55.896;37.396;2023-02-02T02:28:33;98296.00;;;1.55;100.00
70206;BME280;57593;55.896;37.396;2023-02-02T02:32:03;98304.53;;;1.47;100.00
70206;BME280;57593;55.896;37.396;2023-02-02T02:33:37;98302.25;;;1.54;100.00
70206;BME280;57593;55.896;37.396;2023-02-02T02:38:00;98312.59;;;1.22;100.00
70206;BME280;57593;55.896;37.396;2023-02-02T02:41:12;98306.03;;;1.48;100.00
70206;BME280;57593;55.896;37.396;2023-02-02T02:41:29;98309.59;;;1.52;100.00
70206;BME280;57593;55.896;37.396;2023-02-02T02:42:09;98316.88;;;1.41;100.00
70206;BME280;57593;55.896;37.396;2023-02-02T02:42:45;98310.66;;;1.51;100.00
70206;BME280;57593;55.896;37.396;2023-02-02T02:44:01;98308.59;;;1.39;100.00
70206;BME280;57593;55.896;37.396;2023-02-02T02:44:30;98312.63;;;1.45;100.00
70206;BME280;57593;55.896;37.396;2023-02-02T02:45:03;98306.09;;;1.34;100.00
70206;BME280;57593;55.896;37.396;2023-02-02T02:45:36;98309.13;;;1.50;100.00
70206;BME280;57593;55.896;37.396;2023-02-02T02:46:08;98309.66;;;1.60;100.00
70206;BME280;57593;55.896;37.396;2023-02-02T02:46:40;98307.34;;;1.59;100.00
70206;BME280;57593;55.896;37.396;2023-02-02T02:47:12;98306.28;;;1.60;100.00
70206;BME280;57593;55.896;37.396;2023-02-02T02:47:43;98311.16;;;1.53;100.00
70206;BME280;57593;55.896;37.396;2023-02-02T02:48:15;98304.03;;;1.44;100.00
70206;BME280;57593;55.896;37.396;2023-02-02T02:48:45;98312.19;;;1.52;100.00
70206;BME280;57593;55.896;37.396;2023-02-02T02:49:17;98313.75;;;1.53;100.00
70206;BME280;57593;55.896;37.396;2023-02-02T02:49:48;98316.84;;;1.64;100.00
70206;BME280;57593;55.896;37.396;2023-02-02T02:50:19;98312.53;;;1.59;100.00
70206;BME280;57593;55.896;37.396;2023-02-02T02:50:50;98315.97;;;1.68;100.00
70206;BME280;57593;55.896;37.396;2023-02-02T02:52:16;98314.09;;;1.60;100.00
70206;BME280;57593;55.896;37.396;2023-02-02T02:52:48;98314.78;;;1.74;100.00
70206;BME280;57593;55.896;37.396;2023-02-02T02:53:22;98305.22;;;1.61;100.00
70206;BME280;57593;55.896;37.396;2023-02-02T02:53:55;98308.88;;;1.60;100.00
70206;BME280;57593;55.896;37.396;2023-02-02T02:54:29;98316.09;;;1.63;100.00
70206;BME280;57593;55.896;37.396;2023-02-02T02:55:02;98316.56;;;1.65;100.00
70206;BME280;57593;55.896;37.396;2023-02-02T02:55:48;98318.13;;;1.66;100.00
70206;BME280;57593;55.896;37.396;2023-02-02T02:56:32;98313.97;;;1.65;100.00
70206;BME280;57593;55.896;37.396;2023-02-02T02:59:00;98308.53;;;1.53;100.00
70206;BME280;57593;55.896;37.396;2023-02-02T03:00:48;98313.88;;;1.34;100.00
70206;BME280;57593;55.896;37.396;2023-02-02T03:01:35;98314.22;;;1.18;100.00
70206;BME280;57593;55.896;37.396;2023-02-02T03:04:23;98314.09;;;1.60;100.00
70206;BME280;57593;55.896;37.396;2023-02-02T03:06:57;98312.72;;;1.40;100.00
70206;BME280;57593;55.896;37.396;2023-02-02T03:09:14;98307.88;;;1.47;100.00
70206;BME280;57593;55.896;37.396;2023-02-02T03:09:48;98313.75;;;1.53;100.00
70206;BME280;57593;55.896;37.396;2023-02-02T03:10:21;98311.66;;;1.41;100.00
70206;BME280;57593;55.896;37.396;2023-02-02T03:10:55;98314.72;;;1.43;100.00
70206;BME280;57593;55.896;37.396;2023-02-02T03:11:27;98309.81;;;1.41;100.00
70206;BME280;57593;55.896;37.396;2023-02-02T03:11:58;98305.03;;;1.35;100.00
70206;BME280;57593;55.896;37.396;2023-02-02T03:12:29;98311.44;;;1.51;100.00
70206;BME280;57593;55.896;37.396;2023-02-02T03:13:00;98308.53;;;1.53;100.00
70206;BME280;57593;55.896;37.396;2023-02-02T03:13:31;98305.69;;;1.63;100.00
70206;BME280;57593;55.896;37.396;2023-02-02T03:14:03;98313.88;;;1.70;100.00
70206;BME280;57593;55.896;37.396;2023-02-02T03:14:35;98312.78;;;1.71;100.00
70206;BME280;57593;55.896;37.396;2023-02-02T03:15:06;98317.88;;;1.54;100.00
70206;BME280;57593;55.896;37.396;2023-02-02T03:15:40;98317.69;;;1.50;100.00
70206;BME280;57593;55.896;37.396;2023-02-02T03:16:14;98322.19;;;1.58;100.00
70206;BME280;57593;55.896;37.396;2023-02-02T03:16:45;98317.22;;;1.71;100.00
70206;BME280;57593;55.896;37.396;2023-02-02T03:17:15;98312.09;;;1.79;100.00
70206;BME280;57593;55.896;37.396;2023-02-02T03:17:47;98314.19;;;1.77;100.00
70206;BME280;57593;55.896;37.396;2023-02-02T03:18:22;98322.00;;;1.77;100.00
70206;BME280;57593;55.896;37.396;2023-02-02T03:18:54;98319.75;;;1.85;100.00
70206;BME280;57593;55.896;37.396;2023-02-02T03:19:26;98317.94;;;1.63;100.00
70206;BME280;57593;55.896;37.396;2023-02-02T03:19:56;98316.94;;;1.72;100.00
70206;BME280;57593;55.896;37.396;2023-02-02T03:20:27;98317.28;;;1.57;100.00
70206;BME280;57593;55.896;37.396;2023-02-02T03:20:58;98323.91;;;1.63;100.00
70206;BME280;57593;55.896;37.396;2023-02-02T03:21:29;98311.84;;;1.67;100.00
70206;BME280;57593;55.896;37.396;2023-02-02T03:22:00;98312.31;;;1.69;100.00
70206;BME280;57593;55.896;37.396;2023-02-02T03:22:31;98314.31;;;1.72;100.00
70206;BME280;57593;55.896;37.396;2023-02-02T03:23:01;98317.81;;;1.68;100.00
70206;BME280;57593;55.896;37.396;2023-02-02T03:23:33;98320.94;;;1.78;100.00
70206;BME280;57593;55.896;37.396;2023-02-02T03:24:04;98321.91;;;1.83;100.00
70206;BME280;57593;55.896;37.396;2023-02-02T03:24:34;98323.25;;;1.80;100.00